sensor_id;sensor_type;location;lat;lon;timestamp;P1;P2;P0
13030;PMS7003;6582;54.644;9.760;2022-12-18T00:00:01;704.2;702.6;
13030;PMS7003;6582;54.644;9.760;2022-12-18T00:05:01;705.5;704.2;
13030;PMS7003;6582;54.644;9.760;2022-12-18T00:10:01;693.8;692.7;
13030;PMS7003;6582;54.644;9.760;2022-12-18T00:15:01;686.2;685.0;
13030;PMS7003;6582;54.644;9.760;2022-12-18T00:20:01;692.3;690.6;
13030;PMS7003;6582;54.644;9.760;2022-12-18T00:25:01;688.4;687.0;
13030;PMS7003;6582;54.644;9.760;2022-12-18T00:30:01;675.4;674.2;
13030;PMS7003;6582;54.644;9.760;2022-12-18T00:35:01;671.5;670.5;
13030;PMS7003;6582;54.644;9.760;2022-12-18T00:40:01;673.7;672.3;
13030;PMS7003;6582;54.644;9.760;2022-12-18T00:45:01;669.0;668.0;
13030;PMS7003;6582;54.644;9.760;2022-12-18T00:50:06;663.0;661.6;
13030;PMS7003;6582;54.644;9.760;2022-12-18T00:55:07;677.2;676.3;
13030;PMS7003;6582;54.644;9.760;2022-12-18T01:00:01;684.7;682.9;
13030;PMS7003;6582;54.644;9.760;2022-12-18T01:05:01;685.8;683.6;
13030;PMS7003;6582;54.644;9.760;2022-12-18T01:10:01;680.1;677.6;
13030;PMS7003;6582;54.644;9.760;2022-12-18T01:15:01;681.8;679.4;
13030;PMS7003;6582;54.644;9.760;2022-12-18T01:20:01;678.3;675.5;
13030;PMS7003;6582;54.644;9.760;2022-12-18T01:25:02;674.7;672.7;
13030;PMS7003;6582;54.644;9.760;2022-12-18T01:30:02;672.7;671.3;
13030;PMS7003;6582;54.644;9.760;2022-12-18T01:35:01;680.0;678.7;
13030;PMS7003;6582;54.644;9.760;2022-12-18T01:40:01;684.2;682.5;
13030;PMS7003;6582;54.644;9.760;2022-12-18T01:45:05;684.7;683.0;
13030;PMS7003;6582;54.644;9.760;2022-12-18T01:50:03;693.1;691.4;
13030;PMS7003;6582;54.644;9.760;2022-12-18T01:55:02;702.6;700.2;
13030;PMS7003;6582;54.644;9.760;2022-12-18T02:00:09;700.2;698.1;
13030;PMS7003;6582;54.644;9.760;2022-12-18T02:05:02;711.0;709.6;
13030;PMS7003;6582;54.644;9.760;2022-12-18T02:10:05;721.1;720.1;
13030;PMS7003;6582;54.644;9.760;2022-12-18T02:35:11;718.4;717.2;
13030;PMS7003;6582;54.644;9.760;2022-12-18T02:40:02;695.3;693.7;
13030;PMS7003;6582;54.644;9.760;2022-12-18T02:45:02;698.5;696.7;
13030;PMS7003;6582;54.644;9.760;2022-12-18T03:05:04;725.6;723.6;
13030;PMS7003;6582;54.644;9.760;2022-12-18T03:10:01;706.4;704.0;
13030;PMS7003;6582;54.644;9.760;2022-12-18T03:15:03;701.4;699.1;
13030;PMS7003;6582;54.644;9.760;2022-12-18T03:20:06;695.5;692.8;
13030;PMS7003;6582;54.644;9.760;2022-12-18T03:25:04;702.1;698.9;
13030;PMS7003;6582;54.644;9.760;2022-12-18T03:30:03;695.6;692.8;
13030;PMS7003;6582;54.644;9.760;2022-12-18T03:35:02;688.6;686.3;
13030;PMS7003;6582;54.644;9.760;2022-12-18T03:40:02;686.5;684.5;
13030;PMS7003;6582;54.644;9.760;2022-12-18T03:45:03;696.4;694.4;
13030;PMS7003;6582;54.644;9.760;2022-12-18T04:05:02;730.8;730.8;
13030;PMS7003;6582;54.644;9.760;2022-12-18T04:10:01;710.8;710.4;
13030;PMS7003;6582;54.644;9.760;2022-12-18T04:15:01;720.7;719.7;
13030;PMS7003;6582;54.644;9.760;2022-12-18T04:20:01;716.1;715.1;
13030;PMS7003;6582;54.644;9.760;2022-12-18T04:25:01;717.4;716.2;
13030;PMS7003;6582;54.644;9.760;2022-12-18T04:30:01;712.0;710.8;
13030;PMS7003;6582;54.644;9.760;2022-12-18T04:35:01;720.2;718.4;
13030;PMS7003;6582;54.644;9.760;2022-12-18T04:40:01;712.1;710.7;
13030;PMS7003;6582;54.644;9.760;2022-12-18T04:45:01;723.6;722.4;
13030;PMS7003;6582;54.644;9.760;2022-12-18T04:50:01;722.2;720.8;
13030;PMS7003;6582;54.644;9.760;2022-12-18T04:55:02;729.4;728.0;
13030;PMS7003;6582;54.644;9.760;2022-12-18T05:00:01;729.5;728.8;
13030;PMS7003;6582;54.644;9.760;2022-12-18T05:05:07;732.0;730.6;
13030;PMS7003;6582;54.644;9.760;2022-12-18T05:10:01;722.8;721.1;
13030;PMS7003;6582;54.644;9.760;2022-12-18T05:15:01;723.4;722.4;
13030;PMS7003;6582;54.644;9.760;2022-12-18T05:20:01;715.2;713.8;
13030;PMS7003;6582;54.644;9.760;2022-12-18T05:25:01;699.3;697.9;
13030;PMS7003;6582;54.644;9.760;2022-12-18T05:30:07;684.9;683.8;
13030;PMS7003;6582;54.644;9.760;2022-12-18T05:35:01;682.8;682.0;
13030;PMS7003;6582;54.644;9.760;2022-12-18T05:40:02;679.8;678.6;
13030;PMS7003;6582;54.644;9.760;2022-12-18T05:45:01;675.9;674.5;
13030;PMS7003;6582;54.644;9.760;2022-12-18T05:50:01;684.9;683.3;
13030;PMS7003;6582;54.644;9.760;2022-12-18T05:55:01;698.7;697.2;
13030;PMS7003;6582;54.644;9.760;2022-12-18T06:00:01;701.1;699.6;
13030;PMS7003;6582;54.644;9.760;2022-12-18T06:05:01;696.8;695.4;
13030;PMS7003;6582;54.644;9.760;2022-12-18T06:10:01;707.1;706.3;
13030;PMS7003;6582;54.644;9.760;2022-12-18T06:15:06;709.5;708.5;
13030;PMS7003;6582;54.644;9.760;2022-12-18T06:20:01;710.1;709.5;
13030;PMS7003;6582;54.644;9.760;2022-12-18T06:25:01;706.4;704.8;
13030;PMS7003;6582;54.644;9.760;2022-12-18T06:30:07;711.9;710.6;
13030;PMS7003;6582;54.644;9.760;2022-12-18T06:35:01;705.6;703.6;
13030;PMS7003;6582;54.644;9.760;2022-12-18T06:40:01;704.3;702.6;
13030;PMS7003;6582;54.644;9.760;2022-12-18T06:45:01;695.9;693.8;
13030;PMS7003;6582;54.644;9.760;2022-12-18T06:50:01;702.1;701.0;
13030;PMS7003;6582;54.644;9.760;2022-12-18T06:55:01;701.8;700.7;
13030;PMS7003;6582;54.644;9.760;2022-12-18T07:00:01;708.6;707.7;
13030;PMS7003;6582;54.644;9.760;2022-12-18T07:05:11;703.7;701.6;
13030;PMS7003;6582;54.644;9.760;2022-12-18T07:10:01;713.3;711.2;
13030;PMS7003;6582;54.644;9.760;2022-12-18T07:15:02;707.6;705.2;
13030;PMS7003;6582;54.644;9.760;2022-12-18T07:20:06;712.0;709.6;
13030;PMS7003;6582;54.644;9.760;2022-12-18T07:25:01;712.8;710.8;
13030;PMS7003;6582;54.644;9.760;2022-12-18T07:30:01;719.0;718.0;
13030;PMS7003;6582;54.644;9.760;2022-12-18T07:35:03;715.8;715.2;
13030;PMS7003;6582;54.644;9.760;2022-12-18T07:40:02;720.7;719.8;
13030;PMS7003;6582;54.644;9.760;2022-12-18T07:45:01;718.3;716.6;
13030;PMS7003;6582;54.644;9.760;2022-12-18T07:50:02;717.1;715.6;
13030;PMS7003;6582;54.644;9.760;2022-12-18T07:55:03;716.1;713.8;
13030;PMS7003;6582;54.644;9.760;2022-12-18T08:00:02;721.6;719.0;
13030;PMS7003;6582;54.644;9.760;2022-12-18T08:05:06;718.9;716.9;
13030;PMS7003;6582;54.644;9.760;2022-12-18T08:10:02;713.5;712.3;
13030;PMS7003;6582;54.644;9.760;2022-12-18T08:15:01;708.2;706.5;
13030;PMS7003;6582;54.644;9.760;2022-12-18T08:20:01;714.7;713.2;
13030;PMS7003;6582;54.644;9.760;2022-12-18T08:25:02;713.4;712.2;
13030;PMS7003;6582;54.644;9.760;2022-12-18T08:30:01;711.4;709.7;
13030;PMS7003;6582;54.644;9.760;2022-12-18T08:35:01;712.0;709.9;
13030;PMS7003;6582;54.644;9.760;2022-12-18T08:40:01;717.0;715.4;
13030;PMS7003;6582;54.644;9.760;2022-12-18T08:45:06;711.0;710.0;
13030;PMS7003;6582;54.644;9.760;2022-12-18T08:50:07;701.7;700.7;
13030;PMS7003;6582;54.644;9.760;2022-12-18T08:55:07;689.8;689.4;
13030;PMS7003;6582;54.644;9.760;2022-12-18T09:00:01;699.1;698.6;
13030;PMS7003;6582;54.644;9.760;2022-12-18T09:05:01;697.8;696.3;
13030;PMS7003;6582;54.644;9.760;2022-12-18T09:10:04;687.9;686.0;
13030;PMS7003;6582;54.644;9.760;2022-12-18T09:15:03;696.8;694.6;
13030;PMS7003;6582;54.644;9.760;2022-12-18T09:20:11;711.2;708.9;
13030;PMS7003;6582;54.644;9.760;2022-12-18T09:25:02;692.6;690.8;
13030;PMS7003;6582;54.644;9.760;2022-12-18T09:30:01;670.3;669.5;
13030;PMS7003;6582;54.644;9.760;2022-12-18T09:35:07;669.8;669.4;
13030;PMS7003;6582;54.644;9.760;2022-12-18T09:40:01;646.1;645.8;
13030;PMS7003;6582;54.644;9.760;2022-12-18T09:45:01;616.3;615.6;
13030;PMS7003;6582;54.644;9.760;2022-12-18T09:50:02;613.4;612.7;
13030;PMS7003;6582;54.644;9.760;2022-12-18T09:55:05;608.6;607.9;
13030;PMS7003;6582;54.644;9.760;2022-12-18T10:00:17;599.3;597.9;
13030;PMS7003;6582;54.644;9.760;2022-12-18T10:05:05;619.1;617.7;
13030;PMS7003;6582;54.644;9.760;2022-12-18T10:10:10;613.9;613.0;
13030;PMS7003;6582;54.644;9.760;2022-12-18T10:15:10;600.1;598.5;
13030;PMS7003;6582;54.644;9.760;2022-12-18T10:35:02;435.4;435.4;
13030;PMS7003;6582;54.644;9.760;2022-12-18T10:55:02;414.6;414.6;
13030;PMS7003;6582;54.644;9.760;2022-12-18T11:15:02;398.4;398.4;
13030;PMS7003;6582;54.644;9.760;2022-12-18T11:20:03;384.2;383.3;
13030;PMS7003;6582;54.644;9.760;2022-12-18T11:25:18;380.1;379.5;
13030;PMS7003;6582;54.644;9.760;2022-12-18T12:05:09;396.8;396.8;
13030;PMS7003;6582;54.644;9.760;2022-12-18T12:25:14;390.6;390.6;
13030;PMS7003;6582;54.644;9.760;2022-12-18T12:30:04;393.4;393.4;
13030;PMS7003;6582;54.644;9.760;2022-12-18T12:35:19;390.3;390.3;
13030;PMS7003;6582;54.644;9.760;2022-12-18T12:40:26;403.2;403.2;
13030;PMS7003;6582;54.644;9.760;2022-12-18T12:45:03;426.9;426.9;
13030;PMS7003;6582;54.644;9.760;2022-12-18T12:50:12;418.0;418.0;
13030;PMS7003;6582;54.644;9.760;2022-12-18T12:55:02;416.5;416.5;
13030;PMS7003;6582;54.644;9.760;2022-12-18T13:00:05;428.0;428.0;
13030;PMS7003;6582;54.644;9.760;2022-12-18T13:05:05;411.7;411.7;
13030;PMS7003;6582;54.644;9.760;2022-12-18T13:25:02;345.4;344.8;
13030;PMS7003;6582;54.644;9.760;2022-12-18T13:30:02;399.2;398.0;
13030;PMS7003;6582;54.644;9.760;2022-12-18T13:35:51;380.8;380.0;
13030;PMS7003;6582;54.644;9.760;2022-12-18T13:55:04;368.8;368.8;
13030;PMS7003;6582;54.644;9.760;2022-12-18T14:15:19;357.8;354.6;
13030;PMS7003;6582;54.644;9.760;2022-12-18T14:20:01;386.4;384.0;
13030;PMS7003;6582;54.644;9.760;2022-12-18T14:25:26;388.6;387.0;
13030;PMS7003;6582;54.644;9.760;2022-12-18T15:05:17;470.2;470.2;
13030;PMS7003;6582;54.644;9.760;2022-12-18T15:10:03;471.5;470.8;
13030;PMS7003;6582;54.644;9.760;2022-12-18T15:35:08;430.4;430.4;
13030;PMS7003;6582;54.644;9.760;2022-12-18T15:40:02;433.2;433.2;
13030;PMS7003;6582;54.644;9.760;2022-12-18T15:45:02;450.1;449.7;
13030;PMS7003;6582;54.644;9.760;2022-12-18T15:50:02;448.4;447.5;
13030;PMS7003;6582;54.644;9.760;2022-12-18T15:55:02;445.6;444.5;
13030;PMS7003;6582;54.644;9.760;2022-12-18T16:00:02;446.8;445.7;
13030;PMS7003;6582;54.644;9.760;2022-12-18T16:05:01;452.8;451.4;
13030;PMS7003;6582;54.644;9.760;2022-12-18T16:10:03;455.2;454.1;
13030;PMS7003;6582;54.644;9.760;2022-12-18T16:15:10;458.5;457.1;
13030;PMS7003;6582;54.644;9.760;2022-12-18T16:20:01;462.3;461.3;
13030;PMS7003;6582;54.644;9.760;2022-12-18T16:25:02;468.8;467.7;
13030;PMS7003;6582;54.644;9.760;2022-12-18T16:30:01;467.9;467.0;
13030;PMS7003;6582;54.644;9.760;2022-12-18T16:35:02;458.2;457.0;
13030;PMS7003;6582;54.644;9.760;2022-12-18T16:40:01;458.1;457.4;
13030;PMS7003;6582;54.644;9.760;2022-12-18T16:45:02;459.8;458.6;
13030;PMS7003;6582;54.644;9.760;2022-12-18T16:50:01;456.1;454.9;
13030;PMS7003;6582;54.644;9.760;2022-12-18T16:55:03;453.2;452.0;
13030;PMS7003;6582;54.644;9.760;2022-12-18T17:00:11;459.8;458.0;
13030;PMS7003;6582;54.644;9.760;2022-12-18T17:05:02;460.4;459.0;
13030;PMS7003;6582;54.644;9.760;2022-12-18T17:10:02;463.8;462.8;
13030;PMS7003;6582;54.644;9.760;2022-12-18T17:15:02;472.4;471.4;
13030;PMS7003;6582;54.644;9.760;2022-12-18T17:20:01;476.6;475.6;
13030;PMS7003;6582;54.644;9.760;2022-12-18T17:25:02;474.8;474.8;
13030;PMS7003;6582;54.644;9.760;2022-12-18T17:30:07;475.5;475.5;
13030;PMS7003;6582;54.644;9.760;2022-12-18T17:35:08;472.7;472.4;
13030;PMS7003;6582;54.644;9.760;2022-12-18T17:40:02;467.0;466.7;
13030;PMS7003;6582;54.644;9.760;2022-12-18T17:45:02;460.7;460.2;
13030;PMS7003;6582;54.644;9.760;2022-12-18T17:50:03;455.6;454.3;
13030;PMS7003;6582;54.644;9.760;2022-12-18T17:55:06;458.0;456.6;
13030;PMS7003;6582;54.644;9.760;2022-12-18T18:00:06;448.9;447.7;
13030;PMS7003;6582;54.644;9.760;2022-12-18T18:05:01;450.0;448.9;
13030;PMS7003;6582;54.644;9.760;2022-12-18T18:10:02;453.3;452.2;
13030;PMS7003;6582;54.644;9.760;2022-12-18T18:15:07;454.7;454.2;
13030;PMS7003;6582;54.644;9.760;2022-12-18T18:20:02;449.0;448.6;
13030;PMS7003;6582;54.644;9.760;2022-12-18T18:25:03;449.8;448.4;
13030;PMS7003;6582;54.644;9.760;2022-12-18T18:30:02;440.8;439.4;
13030;PMS7003;6582;54.644;9.760;2022-12-18T18:35:01;439.3;438.2;
13030;PMS7003;6582;54.644;9.760;2022-12-18T18:40:02;435.4;433.7;
13030;PMS7003;6582;54.644;9.760;2022-12-18T18:45:02;430.2;428.5;
13030;PMS7003;6582;54.644;9.760;2022-12-18T18:50:07;435.6;434.1;
13030;PMS7003;6582;54.644;9.760;2022-12-18T18:55:27;439.1;437.0;
13030;PMS7003;6582;54.644;9.760;2022-12-18T19:00:02;436.4;433.6;
13030;PMS7003;6582;54.644;9.760;2022-12-18T19:05:02;438.6;436.6;
13030;PMS7003;6582;54.644;9.760;2022-12-18T19:10:06;441.2;438.7;
13030;PMS7003;6582;54.644;9.760;2022-12-18T19:15:02;440.9;439.0;
13030;PMS7003;6582;54.644;9.760;2022-12-18T19:20:02;441.4;440.0;
13030;PMS7003;6582;54.644;9.760;2022-12-18T19:30:07;438.6;438.0;
13030;PMS7003;6582;54.644;9.760;2022-12-18T19:35:02;431.6;430.9;
13030;PMS7003;6582;54.644;9.760;2022-12-18T19:40:13;428.3;428.0;
13030;PMS7003;6582;54.644;9.760;2022-12-18T19:45:02;420.8;420.7;
13030;PMS7003;6582;54.644;9.760;2022-12-18T19:50:03;418.5;418.4;
13030;PMS7003;6582;54.644;9.760;2022-12-18T19:55:02;418.9;418.6;
13030;PMS7003;6582;54.644;9.760;2022-12-18T20:00:07;421.3;420.9;
13030;PMS7003;6582;54.644;9.760;2022-12-18T20:05:04;420.0;419.5;
13030;PMS7003;6582;54.644;9.760;2022-12-18T20:10:10;421.6;420.6;
13030;PMS7003;6582;54.644;9.760;2022-12-18T20:15:01;420.8;419.8;
13030;PMS7003;6582;54.644;9.760;2022-12-18T20:20:04;423.3;421.5;
13030;PMS7003;6582;54.644;9.760;2022-12-18T20:30:02;427.5;426.0;
13030;PMS7003;6582;54.644;9.760;2022-12-18T20:35:06;438.4;437.0;
13030;PMS7003;6582;54.644;9.760;2022-12-18T20:40:03;448.6;447.6;
13030;PMS7003;6582;54.644;9.760;2022-12-18T20:45:05;451.8;450.8;
13030;PMS7003;6582;54.644;9.760;2022-12-18T20:50:08;456.8;456.6;
13030;PMS7003;6582;54.644;9.760;2022-12-18T20:55:03;461.4;460.5;
13030;PMS7003;6582;54.644;9.760;2022-12-18T21:00:01;459.3;458.4;
13030;PMS7003;6582;54.644;9.760;2022-12-18T21:10:03;454.4;453.6;
13030;PMS7003;6582;54.644;9.760;2022-12-18T21:15:03;448.8;447.9;
13030;PMS7003;6582;54.644;9.760;2022-12-18T21:20:08;445.2;444.0;
13030;PMS7003;6582;54.644;9.760;2022-12-18T21:25:03;439.4;438.8;
13030;PMS7003;6582;54.644;9.760;2022-12-18T21:30:02;432.8;432.2;
13030;PMS7003;6582;54.644;9.760;2022-12-18T21:35:01;435.8;434.8;
13030;PMS7003;6582;54.644;9.760;2022-12-18T21:40:02;437.2;436.2;
13030;PMS7003;6582;54.644;9.760;2022-12-18T21:45:01;436.8;436.4;
13030;PMS7003;6582;54.644;9.760;2022-12-18T21:50:02;444.0;443.5;
13030;PMS7003;6582;54.644;9.760;2022-12-18T21:55:10;454.0;453.1;
13030;PMS7003;6582;54.644;9.760;2022-12-18T22:00:02;455.7;455.3;
13030;PMS7003;6582;54.644;9.760;2022-12-18T22:10:03;466.3;465.8;
13030;PMS7003;6582;54.644;9.760;2022-12-18T22:15:03;474.4;473.5;
13030;PMS7003;6582;54.644;9.760;2022-12-18T22:20:01;473.9;473.0;
13030;PMS7003;6582;54.644;9.760;2022-12-18T22:25:01;473.3;472.8;
13030;PMS7003;6582;54.644;9.760;2022-12-18T22:30:02;473.3;472.8;
13030;PMS7003;6582;54.644;9.760;2022-12-18T22:35:16;474.0;472.7;
13030;PMS7003;6582;54.644;9.760;2022-12-18T22:40:04;475.1;473.7;
13030;PMS7003;6582;54.644;9.760;2022-12-18T22:45:01;476.9;475.6;
13030;PMS7003;6582;54.644;9.760;2022-12-18T22:50:02;477.5;476.2;
13030;PMS7003;6582;54.644;9.760;2022-12-18T22:55:01;474.0;472.7;
13030;PMS7003;6582;54.644;9.760;2022-12-18T23:00:01;471.4;470.5;
13030;PMS7003;6582;54.644;9.760;2022-12-18T23:05:01;468.1;467.6;
13030;PMS7003;6582;54.644;9.760;2022-12-18T23:10:07;472.0;471.0;
13030;PMS7003;6582;54.644;9.760;2022-12-18T23:15:02;473.1;471.4;
13030;PMS7003;6582;54.644;9.760;2022-12-18T23:25:01;482.8;480.9;
13030;PMS7003;6582;54.644;9.760;2022-12-18T23:30:07;489.8;487.8;
13030;PMS7003;6582;54.644;9.760;2022-12-18T23:35:02;498.9;497.0;
13030;PMS7003;6582;54.644;9.760;2022-12-18T23:40:01;502.9;501.5;
13030;PMS7003;6582;54.644;9.760;2022-12-18T23:45:18;507.4;506.7;
13030;PMS7003;6582;54.644;9.760;2022-12-18T23:50:02;503.8;503.0;
13030;PMS7003;6582;54.644;9.760;2022-12-18T23:55:01;502.7;502.2;
